Accueil
METAR-TAF:

METAR-TAF

Aéroports :

Aéroport international de Harbin Taiping

Harbin, Chine

latitude: 45-45N, longitude: 126-46E, altitude: 143 m

Observation

Le bulletin a été fait il y a 43 minutes, à 14:00 UTC
Vent 2 kt de direction variable
Température -22°C
Humidité 70%
Pression 1024 hPa
Visibilité: 4500 m
fumée

METAR: ZYHB 181400Z VRB01MPS 4500 FU NSC M22/M26 Q1024 NOSIG

Heure: 22:43 (14:43 UTC)

Prévision

Le bulletin a été fait il y a 5 heures et 32 minutes, à 09:11 UTC
Prévision valable du 18 à 12 UTC au 19 à 12 UTC
Vent 6 kt de sud
Visibilité: 4000 m
fumée
Temporairement
du 18 à 12 UTC au 18 à 18 UTC
Visibilité: 1700 m

TAF: ZYHB 180911Z 1812/1912 18003MPS 4000 FU NSC TXM07/06Z TNM23/21Z TEMPO 1812/1818 1700

Observations et prévisions météorologiques de plus de 4000 aéroports (messages METAR et TAF).

Les stations disponibles sont représentées par des disques jaunes et rouges sur la carte.

Passer la souris dessus pour voir le nom de la station.

Cliquer dessus pour voir les observations et prévisions météorologiques.

Pour changer de carte: cliquez sur les boutons verts avec une croix noire pour zoomer, sur le bouton vert avec un tiret pour effectuer un zoom arrière, ou sur les flèches vertes pour les cartes adjacentes.


METAR-TAF: